Ponchatoula, LA (70454)

8:21 AM CDT on August 30, 2016 (GMT -0500)
Wildoak Lane | | Change Station
Active Advisory: Coastal Flood Watch

Elev 52 ft 30.46 °N, 90.41 °W | Updated 11 minutes ago

Clear
Clear
78.4 °F
Feels Like 82 °F
N
0.0
Wind Variable Wind from East

Today
High -- | Low -- °F
--% Chance of Precip.
Yesterday
High -- | Low -- °F
Precip. -- in
Pressure 29.97 in
Visibility 10.0 miles
Clouds Clear
Heat Index 82 °F
Dew Point 76 °F
Humidity 91%
Rainfall 0.00 in
Snow Depth Not available.
6:37 AM 7:26 PM
Waning Crescent, 4% visible
METAR KHDC 301315Z AUTO 03003KT 10SM CLR 26/22 A2997 RMK AO2
Pressure 29.97 in
Visibility 10.0 miles
Clouds Clear
Heat Index 82 °F
Dew Point 76 °F
Humidity 91%
Rainfall 0.00 in
Snow Depth Not available.
6:37 AM 7:26 PM
Waning Crescent, 4% visible
METAR KHDC 301315Z AUTO 03003KT 10SM CLR 26/22 A2997 RMK AO2

10-Day Weather Forecast

Almanac

Astronomy

Aug. 30, 2016 Rise Set
Actual Time
Civil Twilight
Nautical Twilight
Astronomical Twilight
Moon
Length of Visible Light
Length of Day
Tomorrow will be .
, % of the Moon is Illuminated

Today's Extremes

State Highs State Lows

Community

WunderPhotos

Upload Photos

1,935,831 photos uploaded!

WunderBlog® & News

Nearby

Air Quality

  Air Quality AQ Index Pollutant
Not available.

Snow Depth

Station Depth Elevation

Earthquake Activity

City Distance Mag. Time & Date
Minimum magnitude displayed is 2.5.

Coastal Water Temperatures

Place Temperature

Stations

Nearby Weather Stations

Station Location Temp. Windchill Dew Point Humidity Wind Precip. Elev Updated Type
                   

Watches & Warnings

Coastal Flood Watch
Issued: 3:44 AM CDT Aug. 30, 2016 – National Weather Service

... Coastal Flood Watch remains in effect from this evening
through Thursday morning...

* coastal flooding... tides possibly 2 feet above normal

* timing... tonight through Thursday morning

* impacts... tides up to 2 feet above normal will lead to
inundation of low lying coastal roadways and areas not typically
subject to coastal flooding during high tides outside of
protection levees.

Precautionary/preparedness actions...

A coastal Flood Watch means that conditions favorable for
flooding are expected to develop. Coastal residents should be
alert for later statements or warnings... and take action to
protect property.